createdAt,value
2016-10-19T00:00:19.713Z,12.08
2016-10-19T00:00:41.437Z,12.20
2016-10-19T00:01:03.156Z,12.20
2016-10-19T00:01:24.884Z,12.07
2016-10-19T00:01:46.611Z,12.04
2016-10-19T00:02:08.347Z,12.08
2016-10-19T00:02:30.085Z,12.20
2016-10-19T00:02:51.806Z,12.19
2016-10-19T00:03:13.535Z,12.17
2016-10-19T00:03:35.255Z,12.14
2016-10-19T00:03:56.974Z,12.14
2016-10-19T00:04:18.693Z,12.05
2016-10-19T00:04:40.429Z,12.06
2016-10-19T00:05:02.152Z,12.05
2016-10-19T00:05:23.883Z,12.08
2016-10-19T00:05:45.591Z,12.16
2016-10-19T00:06:07.316Z,12.10
2016-10-19T00:06:29.038Z,12.13
2016-10-19T00:06:50.765Z,12.12
2016-10-19T00:07:12.489Z,12.15
2016-10-19T00:07:34.209Z,12.07
2016-10-19T00:07:55.935Z,12.04
2016-10-19T00:08:17.651Z,12.03
2016-10-19T00:08:39.383Z,12.00
2016-10-19T00:09:01.107Z,12.07
2016-10-19T00:09:22.830Z,12.08
2016-10-19T00:09:44.554Z,12.08
2016-10-19T00:10:06.265Z,12.06
2016-10-19T00:10:27.981Z,12.10
2016-10-19T00:10:49.696Z,12.14
2016-10-19T00:11:11.422Z,12.20
2016-10-19T00:11:33.139Z,12.22
2016-10-19T00:11:54.863Z,12.20
2016-10-19T00:12:16.584Z,12.26
2016-10-19T00:12:38.305Z,12.26
2016-10-19T00:13:00.023Z,12.21
2016-10-19T00:13:21.734Z,12.21
2016-10-19T00:13:43.454Z,12.17
2016-10-19T00:14:05.169Z,12.10
2016-10-19T00:14:26.885Z,12.05
2016-10-19T00:14:48.606Z,12.02
2016-10-19T00:15:10.326Z,12.01
2016-10-19T00:15:32.047Z,12.04
2016-10-19T00:15:53.787Z,12.12
2016-10-19T00:16:15.505Z,12.10
2016-10-19T00:16:37.234Z,12.07
2016-10-19T00:16:58.944Z,12.06
2016-10-19T00:17:20.664Z,12.00
2016-10-19T00:17:42.381Z,11.96
2016-10-19T00:18:04.114Z,12.00
2016-10-19T00:18:25.836Z,12.01
2016-10-19T00:18:47.557Z,12.00
2016-10-19T00:19:09.269Z,12.01
2016-10-19T00:19:30.980Z,12.00
2016-10-19T00:19:52.700Z,12.02
2016-10-19T00:20:14.416Z,12.04
2016-10-19T00:20:36.133Z,12.01
2016-10-19T00:20:57.867Z,11.96
2016-10-19T00:21:19.578Z,11.93
2016-10-19T00:21:41.294Z,11.95
2016-10-19T00:22:03.012Z,11.99
2016-10-19T00:22:24.728Z,12.03
2016-10-19T00:22:46.451Z,12.03
2016-10-19T00:23:08.174Z,12.05
2016-10-19T00:23:29.890Z,12.04
2016-10-19T00:23:51.621Z,12.01
2016-10-19T00:24:13.336Z,12.01
2016-10-19T00:24:35.050Z,12.02
2016-10-19T00:24:56.780Z,12.07
2016-10-19T00:25:18.487Z,12.05
2016-10-19T00:25:40.218Z,12.03
2016-10-19T00:26:01.933Z,12.02
2016-10-19T00:26:23.653Z,11.98
2016-10-19T00:26:45.366Z,11.98
2016-10-19T00:27:07.092Z,11.93
2016-10-19T00:27:28.817Z,11.98
2016-10-19T00:27:50.543Z,12.01
2016-10-19T00:28:12.269Z,12.06
2016-10-19T00:28:33.989Z,12.04
2016-10-19T00:28:55.703Z,12.06
2016-10-19T00:29:17.424Z,12.14
2016-10-19T00:29:39.144Z,12.13
2016-10-19T00:30:00.866Z,12.07
2016-10-19T00:30:22.598Z,12.06
2016-10-19T00:30:44.320Z,12.02
2016-10-19T00:31:06.036Z,12.01
2016-10-19T00:31:27.782Z,11.94
2016-10-19T00:31:49.498Z,11.96
2016-10-19T00:32:11.215Z,11.99
2016-10-19T00:32:32.938Z,12.05
2016-10-19T00:32:54.663Z,11.97
2016-10-19T00:33:16.383Z,11.95
2016-10-19T00:33:38.101Z,12.03
2016-10-19T00:33:59.819Z,12.00
2016-10-19T00:34:21.563Z,12.03
2016-10-19T00:34:43.275Z,12.04
2016-10-19T00:35:04.999Z,12.03
2016-10-19T00:35:26.720Z,12.03
2016-10-19T00:35:53.208Z,12.06
2016-10-19T00:36:14.923Z,12.04
2016-10-19T00:36:36.636Z,11.96
2016-10-19T00:36:58.353Z,11.97
2016-10-19T00:37:20.077Z,11.97
2016-10-19T00:37:41.800Z,11.97
2016-10-19T00:38:03.515Z,11.96
2016-10-19T00:38:25.237Z,11.96
2016-10-19T00:38:46.955Z,11.96
2016-10-19T00:39:08.674Z,11.94
2016-10-19T00:39:30.396Z,11.92
2016-10-19T00:39:52.112Z,11.93
2016-10-19T00:40:13.835Z,11.92
2016-10-19T00:40:35.560Z,11.92
2016-10-19T00:40:57.272Z,11.89
2016-10-19T00:41:18.989Z,11.85
2016-10-19T00:41:40.818Z,11.85
2016-10-19T00:42:02.541Z,11.91
2016-10-19T00:42:24.257Z,11.90
2016-10-19T00:42:45.990Z,11.96
2016-10-19T00:43:07.706Z,11.96
2016-10-19T00:43:29.429Z,11.96
2016-10-19T00:43:51.172Z,11.86
2016-10-19T00:44:12.895Z,11.85
2016-10-19T00:44:34.622Z,11.85
2016-10-19T00:44:56.342Z,11.95
2016-10-19T00:45:18.062Z,11.95
2016-10-19T00:45:39.788Z,11.94
2016-10-19T00:46:01.505Z,11.96
2016-10-19T00:46:23.325Z,11.87
2016-10-19T00:46:45.043Z,11.84
2016-10-19T00:47:06.762Z,11.83
2016-10-19T00:47:28.481Z,11.83
2016-10-19T00:47:50.203Z,11.87
2016-10-19T00:48:11.917Z,11.87
2016-10-19T00:48:33.638Z,11.85
2016-10-19T00:48:55.367Z,11.86
2016-10-19T00:49:17.084Z,11.84
2016-10-19T00:49:38.799Z,11.82
2016-10-19T00:50:00.525Z,11.88
2016-10-19T00:50:22.237Z,11.90
2016-10-19T00:50:43.954Z,11.96
2016-10-19T00:51:05.676Z,11.91
2016-10-19T00:51:27.403Z,11.92
2016-10-19T00:51:49.126Z,11.94
2016-10-19T00:52:10.841Z,11.92
2016-10-19T00:52:32.572Z,11.89
2016-10-19T00:52:54.286Z,11.87
2016-10-19T00:53:16.001Z,11.78
2016-10-19T00:53:37.724Z,11.83
2016-10-19T00:53:59.453Z,11.87
2016-10-19T00:54:21.168Z,11.82
2016-10-19T00:54:42.892Z,11.88
2016-10-19T00:55:04.637Z,11.90
2016-10-19T00:55:26.351Z,11.85
2016-10-19T00:55:48.084Z,11.83
2016-10-19T00:56:09.803Z,11.85
2016-10-19T00:56:31.525Z,11.89
2016-10-19T00:56:53.242Z,11.88
2016-10-19T00:57:14.962Z,11.83
2016-10-19T00:57:36.678Z,11.79
2016-10-19T00:57:58.393Z,11.83
2016-10-19T00:58:20.115Z,11.78
2016-10-19T00:58:41.832Z,11.80
2016-10-19T00:59:03.553Z,11.80
2016-10-19T00:59:25.271Z,11.78
2016-10-19T00:59:47.009Z,11.75
2016-10-19T01:00:08.736Z,11.79
2016-10-19T01:00:30.458Z,11.84
2016-10-19T01:00:52.185Z,11.88
2016-10-19T01:01:13.897Z,11.83
2016-10-19T01:01:35.617Z,11.82
2016-10-19T01:01:57.331Z,11.83
2016-10-19T01:02:19.050Z,11.81
2016-10-19T01:02:40.772Z,11.72
2016-10-19T01:03:02.489Z,11.70
2016-10-19T01:03:24.301Z,11.70
2016-10-19T01:03:45.930Z,11.72
2016-10-19T01:04:07.649Z,11.73
2016-10-19T01:04:29.365Z,11.77
2016-10-19T01:04:51.090Z,11.74
2016-10-19T01:05:12.807Z,11.76
2016-10-19T01:05:34.536Z,11.80
2016-10-19T01:05:56.258Z,11.77
2016-10-19T01:06:17.979Z,11.74
2016-10-19T01:06:39.696Z,11.72
2016-10-19T01:07:01.418Z,11.74
2016-10-19T01:07:23.141Z,11.73
2016-10-19T01:07:44.852Z,11.77
2016-10-19T01:08:06.573Z,11.80
2016-10-19T01:08:28.290Z,11.76
2016-10-19T01:08:50.013Z,11.74
2016-10-19T01:09:11.733Z,11.77
2016-10-19T01:09:33.452Z,11.85
2016-10-19T01:09:55.181Z,11.83
2016-10-19T01:10:16.896Z,11.84
2016-10-19T01:10:38.616Z,11.74
2016-10-19T01:11:00.396Z,11.77
2016-10-19T01:11:22.119Z,11.82
2016-10-19T01:11:43.831Z,11.80
2016-10-19T01:12:05.555Z,11.74
2016-10-19T01:12:27.272Z,11.72
2016-10-19T01:12:48.983Z,11.82
2016-10-19T01:13:10.705Z,11.83
2016-10-19T01:13:32.433Z,11.78
2016-10-19T01:13:54.150Z,11.72
2016-10-19T01:14:15.873Z,11.73
2016-10-19T01:14:37.597Z,11.74
2016-10-19T01:14:59.319Z,11.70
2016-10-19T01:15:21.060Z,11.67
2016-10-19T01:15:42.774Z,11.75
2016-10-19T01:16:04.498Z,11.80
2016-10-19T01:16:26.216Z,11.72
2016-10-19T01:16:47.931Z,11.69
2016-10-19T01:17:09.647Z,11.66
2016-10-19T01:17:31.364Z,11.64
2016-10-19T01:17:53.105Z,11.60
2016-10-19T01:18:14.834Z,11.66
2016-10-19T01:18:36.553Z,11.72
2016-10-19T01:18:58.276Z,11.74
2016-10-19T01:19:19.986Z,11.75
2016-10-19T01:19:41.709Z,11.74
2016-10-19T01:20:03.437Z,11.73
2016-10-19T01:20:25.161Z,11.71
2016-10-19T01:20:46.875Z,11.79
2016-10-19T01:21:08.591Z,11.77
2016-10-19T01:21:30.513Z,11.69
2016-10-19T01:21:52.227Z,11.65
2016-10-19T01:22:13.940Z,11.58
2016-10-19T01:22:35.662Z,11.51
2016-10-19T01:22:57.380Z,11.48
2016-10-19T01:23:19.096Z,11.45
2016-10-19T01:23:40.818Z,11.54
2016-10-19T01:24:02.527Z,11.62
2016-10-19T01:24:24.272Z,11.59
2016-10-19T01:24:45.998Z,11.59
2016-10-19T01:25:07.718Z,11.58
2016-10-19T01:25:29.435Z,11.53
2016-10-19T01:25:51.146Z,11.48
2016-10-19T01:26:12.863Z,11.52
2016-10-19T01:26:34.596Z,11.56
2016-10-19T01:26:56.323Z,11.66
2016-10-19T01:27:18.053Z,11.60
2016-10-19T01:27:39.767Z,11.60
2016-10-19T01:28:01.487Z,11.58
2016-10-19T01:28:23.202Z,11.55
2016-10-19T01:28:44.922Z,11.55
2016-10-19T01:29:06.645Z,11.46
2016-10-19T01:29:28.368Z,11.48
2016-10-19T01:29:50.081Z,11.46
2016-10-19T01:30:11.807Z,11.48
2016-10-19T01:30:33.524Z,11.41
2016-10-19T01:30:55.248Z,11.49
2016-10-19T01:31:16.969Z,11.51
2016-10-19T01:31:38.687Z,11.49
2016-10-19T01:32:00.403Z,11.46
2016-10-19T01:32:22.123Z,11.47
2016-10-19T01:32:43.840Z,11.55
2016-10-19T01:33:05.560Z,11.47
2016-10-19T01:33:27.273Z,11.44
2016-10-19T01:33:48.994Z,11.36
2016-10-19T01:34:10.712Z,11.36
2016-10-19T01:34:32.440Z,11.38
2016-10-19T01:34:54.158Z,11.46
2016-10-19T01:35:15.886Z,11.51
2016-10-19T01:35:37.715Z,11.54
2016-10-19T01:35:59.437Z,11.55
2016-10-19T01:36:21.159Z,11.53
2016-10-19T01:36:42.874Z,11.48
2016-10-19T01:37:04.597Z,11.48
2016-10-19T01:37:26.328Z,11.48
2016-10-19T01:37:48.075Z,11.47
2016-10-19T01:38:09.796Z,11.53
2016-10-19T01:38:31.520Z,11.63
2016-10-19T01:38:53.238Z,11.58
2016-10-19T01:39:14.951Z,11.58
2016-10-19T01:39:36.676Z,11.59
2016-10-19T01:39:58.389Z,11.43
2016-10-19T01:40:20.170Z,11.40
2016-10-19T01:40:41.888Z,11.41
2016-10-19T01:41:03.607Z,11.42
2016-10-19T01:41:25.320Z,11.49
2016-10-19T01:41:47.042Z,11.51
2016-10-19T01:42:08.760Z,11.52
2016-10-19T01:42:30.486Z,11.49
2016-10-19T01:42:52.200Z,11.48
2016-10-19T01:43:13.921Z,11.43
2016-10-19T01:43:35.638Z,11.44
2016-10-19T01:43:57.361Z,11.48
2016-10-19T01:44:19.076Z,11.52
2016-10-19T01:44:40.792Z,11.45
2016-10-19T01:45:02.512Z,11.33
2016-10-19T01:45:24.233Z,11.33
2016-10-19T01:45:45.951Z,11.35
2016-10-19T01:46:07.670Z,11.38
2016-10-19T01:46:29.389Z,11.45
2016-10-19T01:46:51.108Z,11.39
2016-10-19T01:47:12.833Z,11.40
2016-10-19T01:47:34.570Z,11.39
2016-10-19T01:47:56.285Z,11.40
2016-10-19T01:48:18.007Z,11.32
2016-10-19T01:48:39.718Z,11.36
2016-10-19T01:49:01.438Z,11.38
2016-10-19T01:49:23.155Z,11.38
2016-10-19T01:49:44.873Z,11.41
2016-10-19T01:50:06.587Z,11.41
2016-10-19T01:50:28.307Z,11.37
2016-10-19T01:50:50.025Z,11.31
2016-10-19T01:51:11.740Z,11.40
2016-10-19T01:51:33.466Z,11.40
2016-10-19T01:51:55.183Z,11.41
2016-10-19T01:52:16.899Z,11.35
2016-10-19T01:52:38.623Z,11.36
2016-10-19T01:53:00.347Z,11.38
2016-10-19T01:53:22.070Z,11.48
2016-10-19T01:53:43.789Z,11.42
2016-10-19T01:54:05.505Z,11.45
2016-10-19T01:54:27.225Z,11.48
2016-10-19T01:54:48.944Z,11.50
2016-10-19T01:55:10.661Z,11.48
2016-10-19T01:55:32.384Z,11.52
2016-10-19T01:55:54.101Z,11.48
2016-10-19T01:56:15.813Z,11.50
2016-10-19T01:56:37.540Z,11.49
2016-10-19T01:56:59.263Z,11.55
2016-10-19T01:57:20.996Z,11.50
2016-10-19T01:57:42.750Z,11.40
2016-10-19T01:58:04.493Z,11.37
2016-10-19T01:58:26.186Z,11.38
2016-10-19T01:58:47.900Z,11.32
2016-10-19T01:59:09.634Z,11.34
2016-10-19T01:59:31.347Z,11.37
2016-10-19T01:59:53.078Z,11.34
2016-10-19T02:00:14.792Z,11.38
2016-10-19T02:00:36.508Z,11.35
2016-10-19T02:00:58.233Z,11.28
2016-10-19T02:01:19.959Z,11.26
2016-10-19T02:01:41.670Z,11.23
2016-10-19T02:02:03.390Z,11.23
2016-10-19T02:02:25.106Z,11.34
2016-10-19T02:02:46.830Z,11.38
2016-10-19T02:03:08.546Z,11.36
2016-10-19T02:03:30.265Z,11.32
2016-10-19T02:03:51.982Z,11.31
2016-10-19T02:04:13.699Z,11.36
2016-10-19T02:04:35.435Z,11.39
2016-10-19T02:04:57.274Z,11.36
2016-10-19T02:05:18.991Z,11.39
2016-10-19T02:05:40.714Z,11.35
2016-10-19T02:06:02.428Z,11.33
2016-10-19T02:06:24.142Z,11.32
2016-10-19T02:06:45.865Z,11.38
2016-10-19T02:07:07.583Z,11.31
2016-10-19T02:07:29.301Z,11.35
2016-10-19T02:07:51.023Z,11.38
2016-10-19T02:08:12.739Z,11.48
2016-10-19T02:08:34.460Z,11.38
2016-10-19T02:08:56.177Z,11.32
2016-10-19T02:09:17.908Z,11.22
2016-10-19T02:09:39.693Z,11.28
2016-10-19T02:10:01.421Z,11.32
2016-10-19T02:10:23.145Z,11.34
2016-10-19T02:10:44.860Z,11.37
2016-10-19T02:11:06.597Z,11.43
2016-10-19T02:11:28.318Z,11.38
2016-10-19T02:11:50.036Z,11.41
2016-10-19T02:12:11.755Z,11.41
2016-10-19T02:12:33.473Z,11.36
2016-10-19T02:12:55.186Z,11.24
2016-10-19T02:13:16.903Z,11.23
2016-10-19T02:13:38.622Z,11.24
2016-10-19T02:14:00.352Z,11.27
2016-10-19T02:14:22.074Z,11.36
2016-10-19T02:14:43.799Z,11.32
2016-10-19T02:15:05.526Z,11.25
2016-10-19T02:15:27.243Z,11.28
2016-10-19T02:15:48.959Z,11.34
2016-10-19T02:16:10.677Z,11.43
2016-10-19T02:16:32.390Z,11.40
2016-10-19T02:16:54.102Z,11.35
2016-10-19T02:17:15.815Z,11.40
2016-10-19T02:17:37.532Z,11.41
2016-10-19T02:17:59.250Z,11.39
2016-10-19T02:18:20.970Z,11.31
2016-10-19T02:18:42.687Z,11.32
2016-10-19T02:19:04.408Z,11.25
2016-10-19T02:19:26.131Z,11.26
2016-10-19T02:19:47.847Z,11.28
2016-10-19T02:20:09.568Z,11.27
2016-10-19T02:20:31.294Z,11.30
2016-10-19T02:20:53.013Z,11.22
2016-10-19T02:21:14.730Z,11.15
2016-10-19T02:21:36.452Z,11.14
2016-10-19T02:21:58.173Z,11.19
2016-10-19T02:22:19.903Z,11.20
2016-10-19T02:22:41.623Z,11.20
2016-10-19T02:23:03.350Z,11.19
2016-10-19T02:23:25.061Z,11.25
2016-10-19T02:23:46.775Z,11.31
2016-10-19T02:24:08.494Z,11.21
2016-10-19T02:24:30.213Z,11.15
2016-10-19T02:24:51.934Z,11.17
2016-10-19T02:25:13.661Z,11.14
2016-10-19T02:25:35.374Z,11.15
2016-10-19T02:25:57.105Z,11.14
2016-10-19T02:26:18.815Z,11.18
2016-10-19T02:26:40.537Z,11.19
2016-10-19T02:27:02.255Z,11.17
2016-10-19T02:27:24.005Z,11.25
2016-10-19T02:27:45.723Z,11.18
2016-10-19T02:28:12.221Z,11.19
2016-10-19T02:28:33.947Z,11.16
2016-10-19T02:28:55.662Z,11.16
2016-10-19T02:29:17.374Z,11.11
2016-10-19T02:29:39.086Z,11.08
2016-10-19T02:30:00.822Z,11.11
2016-10-19T02:30:22.538Z,11.07
2016-10-19T02:30:44.259Z,11.16
2016-10-19T02:31:05.977Z,11.14
2016-10-19T02:31:27.694Z,11.18
2016-10-19T02:31:49.420Z,11.19
2016-10-19T02:32:11.141Z,11.22
2016-10-19T02:32:32.857Z,11.23
2016-10-19T02:32:54.572Z,11.21
2016-10-19T02:33:16.298Z,11.11
2016-10-19T02:33:38.018Z,11.08
2016-10-19T02:33:59.736Z,11.14
2016-10-19T02:34:21.448Z,11.14
2016-10-19T02:34:43.165Z,11.23
2016-10-19T02:35:04.887Z,11.28
2016-10-19T02:35:26.729Z,11.32
2016-10-19T02:35:48.447Z,11.29
2016-10-19T02:36:10.162Z,11.28
2016-10-19T02:36:31.882Z,11.27
2016-10-19T02:36:53.603Z,11.31
2016-10-19T02:37:15.329Z,11.33
2016-10-19T02:37:37.050Z,11.31
2016-10-19T02:37:58.769Z,11.28
2016-10-19T02:38:20.487Z,11.34
2016-10-19T02:38:42.203Z,11.34
2016-10-19T02:39:03.923Z,11.32
2016-10-19T02:39:25.656Z,11.32
2016-10-19T02:39:47.370Z,11.25
2016-10-19T02:40:09.167Z,11.17
2016-10-19T02:40:30.887Z,11.18
2016-10-19T02:40:52.603Z,11.11
2016-10-19T02:41:14.334Z,11.06
2016-10-19T02:41:36.060Z,11.00
2016-10-19T02:41:57.781Z,10.97
2016-10-19T02:42:19.500Z,11.03
2016-10-19T02:42:41.226Z,11.07
2016-10-19T02:43:02.943Z,11.07
2016-10-19T02:43:24.671Z,11.00
2016-10-19T02:43:46.389Z,10.98
2016-10-19T02:44:08.115Z,11.09
2016-10-19T02:44:29.828Z,10.99
2016-10-19T02:44:51.545Z,11.05
2016-10-19T02:45:13.263Z,11.11
2016-10-19T02:45:34.980Z,11.09
2016-10-19T02:45:56.704Z,11.08
2016-10-19T02:46:18.425Z,10.97
2016-10-19T02:46:40.144Z,10.96
2016-10-19T02:47:01.866Z,10.92
2016-10-19T02:47:23.585Z,10.91
2016-10-19T02:47:45.299Z,10.88
2016-10-19T02:48:07.023Z,10.81
2016-10-19T02:48:28.742Z,10.74
2016-10-19T02:48:50.456Z,10.82
2016-10-19T02:49:12.175Z,10.83
2016-10-19T02:49:33.893Z,10.90
2016-10-19T02:49:55.610Z,10.89
2016-10-19T02:50:17.328Z,10.83
2016-10-19T02:50:39.055Z,10.86
2016-10-19T02:51:00.771Z,10.88
2016-10-19T02:51:22.501Z,10.86
2016-10-19T02:51:44.219Z,10.77
2016-10-19T02:52:05.940Z,10.86
2016-10-19T02:52:27.675Z,10.89
2016-10-19T02:52:49.390Z,10.94
2016-10-19T02:53:11.107Z,10.95
2016-10-19T02:53:32.827Z,10.95
2016-10-19T02:53:54.535Z,10.91
2016-10-19T02:54:16.245Z,10.98
2016-10-19T02:54:37.972Z,10.89
2016-10-19T02:54:59.686Z,10.84
2016-10-19T02:55:21.412Z,10.83
2016-10-19T02:55:43.147Z,10.78
2016-10-19T02:56:04.866Z,10.71
2016-10-19T02:56:26.583Z,10.73
2016-10-19T02:56:48.300Z,10.73
2016-10-19T02:57:10.016Z,10.79
2016-10-19T02:57:31.734Z,10.83
2016-10-19T02:57:53.462Z,10.82
2016-10-19T02:58:15.186Z,10.81
2016-10-19T02:58:36.905Z,10.82
2016-10-19T02:58:58.622Z,10.77
2016-10-19T02:59:20.346Z,10.75
2016-10-19T02:59:42.066Z,10.72
2016-10-19T03:00:03.780Z,10.85
2016-10-19T03:00:25.520Z,10.80
2016-10-19T03:00:47.229Z,10.76
2016-10-19T03:01:08.960Z,10.81
2016-10-19T03:01:30.681Z,10.76
2016-10-19T03:01:52.409Z,10.81
2016-10-19T03:02:14.134Z,10.84
2016-10-19T03:02:35.855Z,10.81
2016-10-19T03:02:57.579Z,10.90
2016-10-19T03:03:19.294Z,10.85
2016-10-19T03:03:41.015Z,10.85
2016-10-19T03:04:02.732Z,10.89
2016-10-19T03:04:24.455Z,10.92
2016-10-19T03:04:46.265Z,10.99
2016-10-19T03:05:07.979Z,10.89
2016-10-19T03:05:29.696Z,10.83
2016-10-19T03:05:51.415Z,10.72
2016-10-19T03:06:13.144Z,10.79
2016-10-19T03:06:34.863Z,10.75
2016-10-19T03:06:56.592Z,10.68
2016-10-19T03:07:18.312Z,10.65
2016-10-19T03:07:40.030Z,10.71
2016-10-19T03:08:01.745Z,10.70
2016-10-19T03:08:23.469Z,10.73
2016-10-19T03:08:45.188Z,10.78
2016-10-19T03:09:06.902Z,10.67
2016-10-19T03:09:28.620Z,10.64
2016-10-19T03:09:50.335Z,10.66
2016-10-19T03:10:12.068Z,10.66
2016-10-19T03:10:33.795Z,10.62
2016-10-19T03:10:55.510Z,10.61
2016-10-19T03:11:17.234Z,10.63
2016-10-19T03:11:38.954Z,10.57
2016-10-19T03:12:00.672Z,10.52
2016-10-19T03:12:22.393Z,10.56
2016-10-19T03:12:44.111Z,10.47
2016-10-19T03:13:05.832Z,10.42
2016-10-19T03:13:27.551Z,10.47
2016-10-19T03:13:49.280Z,10.55
2016-10-19T03:14:11.007Z,10.65
2016-10-19T03:14:32.740Z,10.65
2016-10-19T03:14:54.458Z,10.67
2016-10-19T03:15:16.189Z,10.73
2016-10-19T03:15:37.915Z,10.66
2016-10-19T03:15:59.651Z,10.56
2016-10-19T03:16:21.354Z,10.51
2016-10-19T03:16:43.073Z,10.46
2016-10-19T03:17:04.783Z,10.43
2016-10-19T03:17:26.501Z,10.39
2016-10-19T03:17:48.215Z,10.45
2016-10-19T03:18:09.940Z,10.46
2016-10-19T03:18:31.660Z,10.45
2016-10-19T03:18:53.375Z,10.39
2016-10-19T03:19:15.088Z,10.43
2016-10-19T03:19:36.812Z,10.40
2016-10-19T03:19:58.525Z,10.35
2016-10-19T03:20:20.243Z,10.31
2016-10-19T03:20:41.962Z,10.34
2016-10-19T03:21:03.678Z,10.28
2016-10-19T03:21:25.399Z,10.25
2016-10-19T03:21:47.114Z,10.25
2016-10-19T03:22:08.834Z,10.31
2016-10-19T03:22:30.552Z,10.31
2016-10-19T03:22:52.321Z,10.27
2016-10-19T03:23:14.042Z,10.26
2016-10-19T03:23:35.764Z,10.20
2016-10-19T03:23:57.481Z,10.17
2016-10-19T03:24:19.193Z,10.18
2016-10-19T03:24:40.919Z,10.16
2016-10-19T03:25:02.654Z,10.20
2016-10-19T03:25:24.369Z,10.28
2016-10-19T03:25:46.088Z,10.28
2016-10-19T03:26:07.806Z,10.23
2016-10-19T03:26:29.523Z,10.20
2016-10-19T03:26:51.248Z,10.16
2016-10-19T03:27:12.960Z,10.14
2016-10-19T03:27:34.685Z,10.21
2016-10-19T03:27:56.416Z,10.15
2016-10-19T03:28:18.140Z,10.23
2016-10-19T03:28:39.863Z,10.34
2016-10-19T03:29:01.579Z,10.38
2016-10-19T03:29:23.307Z,10.36
2016-10-19T03:29:45.042Z,10.39
2016-10-19T03:30:06.760Z,10.33
2016-10-19T03:30:28.480Z,10.35
2016-10-19T03:30:50.200Z,10.29
2016-10-19T03:31:11.934Z,10.30
2016-10-19T03:31:33.665Z,10.35
2016-10-19T03:31:55.381Z,10.30
2016-10-19T03:32:17.103Z,10.26
2016-10-19T03:32:38.813Z,10.29
2016-10-19T03:33:00.550Z,10.35
2016-10-19T03:33:22.267Z,10.37
2016-10-19T03:33:43.981Z,10.41
2016-10-19T03:34:05.877Z,10.38
2016-10-19T03:34:27.590Z,10.42
2016-10-19T03:34:49.305Z,10.35
2016-10-19T03:35:11.055Z,10.32
2016-10-19T03:35:32.759Z,10.26
2016-10-19T03:35:54.479Z,10.24
2016-10-19T03:36:16.199Z,10.15
2016-10-19T03:36:37.924Z,10.05
2016-10-19T03:36:59.645Z,10.06
2016-10-19T03:37:21.366Z,10.06
2016-10-19T03:37:43.076Z,10.19
2016-10-19T03:38:04.789Z,10.08
2016-10-19T03:38:26.512Z,9.97
2016-10-19T03:38:48.256Z,10.09
2016-10-19T03:39:09.976Z,10.20
2016-10-19T03:39:31.694Z,10.16
2016-10-19T03:39:53.410Z,10.15
2016-10-19T03:40:15.135Z,10.23
2016-10-19T03:40:36.860Z,10.21
2016-10-19T03:40:58.587Z,10.15
2016-10-19T03:41:20.300Z,10.10
2016-10-19T03:41:42.029Z,10.03
2016-10-19T03:42:03.751Z,10.08
2016-10-19T03:42:25.465Z,10.14
2016-10-19T03:42:47.182Z,10.08
2016-10-19T03:43:08.901Z,10.02
2016-10-19T03:43:30.614Z,10.12
2016-10-19T03:43:52.328Z,10.22
2016-10-19T03:44:14.050Z,10.22
2016-10-19T03:44:35.771Z,10.23
2016-10-19T03:44:57.495Z,10.24
2016-10-19T03:45:19.239Z,10.19
2016-10-19T03:45:40.926Z,10.23
2016-10-19T03:46:02.650Z,10.20
2016-10-19T03:46:24.384Z,10.20
2016-10-19T03:46:46.106Z,10.11
2016-10-19T03:47:07.830Z,10.05
2016-10-19T03:47:29.546Z,10.08
2016-10-19T03:47:51.265Z,10.05
2016-10-19T03:48:12.978Z,9.99
2016-10-19T03:48:34.708Z,9.98
2016-10-19T03:48:56.436Z,10.06
2016-10-19T03:49:18.164Z,10.08
2016-10-19T03:49:39.890Z,10.02
2016-10-19T03:50:01.606Z,10.02
2016-10-19T03:50:23.337Z,10.00
2016-10-19T03:50:45.057Z,10.01
2016-10-19T03:51:06.773Z,9.98
2016-10-19T03:51:28.490Z,9.99
2016-10-19T03:51:50.219Z,9.99
2016-10-19T03:52:11.934Z,9.97
2016-10-19T03:52:33.648Z,9.97
2016-10-19T03:52:55.366Z,9.99
2016-10-19T03:53:17.082Z,9.95
2016-10-19T03:53:38.801Z,10.02
2016-10-19T03:54:00.519Z,9.98
2016-10-19T03:54:22.261Z,9.91
2016-10-19T03:54:43.980Z,9.88
2016-10-19T03:55:05.695Z,9.88
2016-10-19T03:55:27.410Z,9.89
2016-10-19T03:55:49.127Z,9.81
2016-10-19T03:56:10.847Z,9.78
2016-10-19T03:56:32.570Z,9.85
2016-10-19T03:56:54.292Z,9.82
2016-10-19T03:57:16.002Z,9.77
2016-10-19T03:57:37.721Z,9.75
2016-10-19T03:57:59.452Z,9.78
2016-10-19T03:58:21.159Z,9.79
2016-10-19T03:58:42.877Z,9.83
2016-10-19T03:59:04.599Z,9.96
2016-10-19T03:59:26.313Z,10.00
2016-10-19T03:59:48.038Z,10.01
2016-10-19T04:00:09.768Z,9.94
2016-10-19T04:00:31.485Z,9.92
2016-10-19T04:00:53.208Z,10.03
2016-10-19T04:01:14.924Z,10.04
2016-10-19T04:01:36.649Z,10.05
2016-10-19T04:01:58.372Z,10.12
2016-10-19T04:02:20.095Z,10.18
2016-10-19T04:02:41.808Z,10.27
2016-10-19T04:03:03.537Z,10.21
2016-10-19T04:03:25.381Z,10.05
2016-10-19T04:03:46.973Z,10.09
2016-10-19T04:04:08.683Z,10.09
2016-10-19T04:04:30.417Z,10.12
2016-10-19T04:04:52.130Z,10.08
2016-10-19T04:05:13.852Z,10.06
2016-10-19T04:05:35.582Z,10.11
2016-10-19T04:05:57.298Z,10.17
2016-10-19T04:06:19.012Z,10.10
2016-10-19T04:06:40.725Z,10.15
2016-10-19T04:07:02.448Z,10.21
2016-10-19T04:07:24.175Z,10.29
2016-10-19T04:07:45.890Z,10.30
2016-10-19T04:08:07.613Z,10.27
2016-10-19T04:08:29.330Z,10.28
2016-10-19T04:08:51.043Z,10.27
2016-10-19T04:09:12.761Z,10.29
2016-10-19T04:09:34.484Z,10.18
2016-10-19T04:09:56.199Z,10.21
2016-10-19T04:10:17.923Z,10.21
2016-10-19T04:10:39.638Z,10.24
2016-10-19T04:11:01.366Z,10.16
2016-10-19T04:11:23.096Z,10.07
2016-10-19T04:11:44.821Z,10.03
2016-10-19T04:12:06.556Z,10.00
2016-10-19T04:12:28.295Z,9.97
2016-10-19T04:12:50.050Z,9.98
2016-10-19T04:13:11.772Z,10.08
2016-10-19T04:13:33.493Z,10.18
2016-10-19T04:13:55.218Z,10.10
2016-10-19T04:14:16.949Z,10.06
2016-10-19T04:14:38.670Z,10.04
2016-10-19T04:15:00.408Z,10.06
2016-10-19T04:15:22.124Z,10.05
2016-10-19T04:15:43.838Z,10.02
2016-10-19T04:16:05.561Z,10.05
2016-10-19T04:16:27.281Z,10.10
2016-10-19T04:16:48.997Z,10.10
2016-10-19T04:17:10.736Z,10.02
2016-10-19T04:17:32.468Z,10.10
2016-10-19T04:17:54.180Z,10.18
2016-10-19T04:18:18.309Z,10.26
2016-10-19T04:18:40.025Z,10.23
2016-10-19T04:19:01.774Z,10.16
2016-10-19T04:19:23.488Z,10.08
2016-10-19T04:19:45.210Z,10.03
2016-10-19T04:20:06.940Z,10.13
2016-10-19T04:20:28.660Z,10.23
2016-10-19T04:20:50.379Z,10.19
2016-10-19T04:21:12.113Z,10.15
2016-10-19T04:21:33.840Z,10.10
2016-10-19T04:21:55.549Z,10.16
2016-10-19T04:22:17.262Z,10.21
2016-10-19T04:22:38.977Z,10.25
2016-10-19T04:23:00.694Z,10.26
2016-10-19T04:23:22.503Z,10.16
2016-10-19T04:23:44.246Z,10.06
2016-10-19T04:24:05.956Z,10.07
2016-10-19T04:24:27.677Z,10.15
2016-10-19T04:24:49.399Z,10.10
2016-10-19T04:25:11.129Z,10.08
2016-10-19T04:25:32.851Z,10.17
2016-10-19T04:25:54.569Z,10.23
2016-10-19T04:26:16.295Z,10.25
2016-10-19T04:26:38.006Z,10.22
2016-10-19T04:26:59.724Z,10.24
2016-10-19T04:27:21.443Z,10.23
2016-10-19T04:27:43.164Z,10.25
2016-10-19T04:28:04.930Z,10.28
2016-10-19T04:28:26.649Z,10.21
2016-10-19T04:28:48.369Z,10.21
2016-10-19T04:29:10.100Z,10.20
2016-10-19T04:29:31.823Z,10.26
2016-10-19T04:29:53.539Z,10.22
2016-10-19T04:30:15.278Z,10.19
2016-10-19T04:30:36.995Z,10.15
2016-10-19T04:30:58.721Z,10.21
2016-10-19T04:31:20.432Z,10.19
2016-10-19T04:31:42.158Z,10.07
2016-10-19T04:32:03.871Z,10.06
2016-10-19T04:32:25.598Z,9.99
2016-10-19T04:32:47.320Z,10.06
2016-10-19T04:33:09.040Z,10.11
2016-10-19T04:33:30.797Z,10.13
2016-10-19T04:33:52.501Z,10.17
2016-10-19T04:34:14.218Z,10.15
2016-10-19T04:34:35.942Z,10.19
2016-10-19T04:34:57.655Z,10.28
2016-10-19T04:35:19.371Z,10.39
2016-10-19T04:35:41.084Z,10.34
2016-10-19T04:36:02.815Z,10.27
2016-10-19T04:36:24.538Z,10.24
2016-10-19T04:36:46.255Z,10.18
2016-10-19T04:37:07.988Z,10.13
2016-10-19T04:37:29.706Z,10.07
2016-10-19T04:37:51.434Z,10.11
2016-10-19T04:38:13.160Z,10.22
2016-10-19T04:38:34.937Z,10.18
2016-10-19T04:38:56.656Z,10.19
2016-10-19T04:39:18.374Z,10.18
2016-10-19T04:39:40.093Z,10.22
2016-10-19T04:40:01.813Z,10.22
2016-10-19T04:40:23.533Z,10.25